Time;durP1;ratioP1;P1;durP2;ratioP2;P2;SDS_P1;SDS_P2;PMS_P1;PMS_P2;Temp;Humidity;BMP_temperature;BMP_pressure;BME280_temperature;BME280_humidity;BME280_pressure;Samples;Min_cycle;Max_cycle;Signal;HPM_P1;HPM_P2
2023/01/13 00:00:59;;;;;;;4.33;1.93;;;23.20;45.20;;;;;;5059363;27;92895;-60
2023/01/13 00:03:27;;;;;;;2.47;2.03;;;23.10;45.10;;;;;;5057485;27;94160;-60
2023/01/13 00:05:55;;;;;;;3.67;1.83;;;23.10;45.20;;;;;;5051432;27;94134;-60
2023/01/13 00:08:24;;;;;;;2.10;1.33;;;23.00;45.20;;;;;;5039538;27;92060;-60
2023/01/13 00:10:52;;;;;;;2.03;1.67;;;23.00;45.20;;;;;;5038849;27;91367;-60
2023/01/13 00:13:25;;;;;;;2.70;1.43;;;23.00;45.20;;;;;;5040509;27;93713;-60
2023/01/13 00:15:56;;;;;;;1.43;1.13;;;22.90;45.20;;;;;;5056235;27;94001;-60
2023/01/13 00:18:25;;;;;;;2.50;1.53;;;22.90;45.30;;;;;;5044333;27;92988;-61
2023/01/13 00:20:59;;;;;;;2.57;1.53;;;22.80;45.20;;;;;;5064742;27;93176;-60
2023/01/13 00:23:28;;;;;;;4.07;1.00;;;22.80;45.30;;;;;;5058591;27;94126;-60
2023/01/13 00:25:56;;;;;;;3.77;1.73;;;22.80;45.30;;;;;;5058759;27;93860;-60
2023/01/13 00:28:25;;;;;;;2.70;1.00;;;22.70;45.20;;;;;;5059411;27;92092;-60
2023/01/13 00:30:55;;;;;;;1.90;1.27;;;22.70;45.30;;;;;;5058359;27;92089;-60
2023/01/13 00:33:23;;;;;;;1.63;1.30;;;22.60;45.20;;;;;;5047973;27;93443;-60
2023/01/13 00:35:56;;;;;;;2.13;1.20;;;22.60;45.20;;;;;;5055297;27;93991;-60
2023/01/13 00:38:24;;;;;;;3.80;1.70;;;22.60;45.30;;;;;;5065823;27;92056;-60
2023/01/13 00:40:57;;;;;;;1.37;1.03;;;22.60;45.30;;;;;;5072258;27;92042;-60
2023/01/13 00:43:24;;;;;;;1.57;1.20;;;22.50;45.30;;;;;;5059878;27;94910;-59
2023/01/13 00:45:52;;;;;;;2.60;1.17;;;22.50;45.30;;;;;;5058056;27;93744;-59
2023/01/13 00:48:20;;;;;;;2.50;1.73;;;22.50;45.30;;;;;;5045640;27;92507;-60
2023/01/13 00:50:55;;;;;;;4.47;2.23;;;22.50;45.40;;;;;;5031035;28;92640;-60
2023/01/13 00:53:22;;;;;;;3.50;2.30;;;22.40;45.30;;;;;;5043388;27;94438;-60
2023/01/13 00:55:53;;;;;;;5.17;2.43;;;22.50;45.40;;;;;;5035901;27;94110;-60
2023/01/13 00:58:22;;;;;;;4.67;2.50;;;22.40;45.30;;;;;;5050425;27;92406;-60
2023/01/13 01:00:50;;;;;;;4.20;2.70;;;22.40;45.30;;;;;;5058641;27;91721;-60
2023/01/13 01:03:18;;;;;;;6.40;2.90;;;22.40;45.30;;;;;;5057686;27;94071;-61
2023/01/13 01:05:47;;;;;;;6.43;3.23;;;22.40;45.30;;;;;;5052565;27;93412;-60
2023/01/13 01:08:15;;;;;;;3.70;3.00;;;22.40;45.40;;;;;;5038129;27;93072;-60
2023/01/13 01:10:43;;;;;;;11.47;4.17;;;22.30;45.30;;;;;;5038501;27;92170;-59
2023/01/13 01:13:15;;;;;;;9.40;3.00;;;22.30;46.00;;;;;;5039424;27;94500;-60
2023/01/13 01:15:46;;;;;;;5.40;2.83;;;22.30;45.40;;;;;;5054451;27;92512;-60
2023/01/13 01:18:14;;;;;;;6.07;4.10;;;22.30;45.40;;;;;;5070738;27;93865;-60
2023/01/13 01:20:42;;;;;;;4.87;2.90;;;22.20;45.30;;;;;;5061932;27;92305;-61
2023/01/13 01:23:10;;;;;;;6.73;3.30;;;22.20;45.60;;;;;;5056961;27;94027;-60
2023/01/13 01:25:38;;;;;;;7.00;3.37;;;22.20;45.40;;;;;;5078934;27;93910;-60
2023/01/13 01:28:06;;;;;;;4.33;3.10;;;22.20;45.40;;;;;;5061998;27;92113;-60
2023/01/13 01:30:34;;;;;;;5.67;3.10;;;22.20;45.50;;;;;;5061343;27;92284;-60
2023/01/13 01:33:04;;;;;;;6.73;3.37;;;22.10;45.40;;;;;;5069719;27;95133;-60
2023/01/13 01:35:32;;;;;;;6.07;3.00;;;22.10;45.40;;;;;;5058567;27;93706;-60
2023/01/13 01:38:00;;;;;;;6.77;3.60;;;22.10;45.40;;;;;;5074005;27;92019;-60
2023/01/13 01:40:28;;;;;;;5.07;3.33;;;22.10;45.40;;;;;;5078164;27;92004;-60
2023/01/13 01:45:41;;;;;;;6.10;3.00;;;22.10;45.50;;;;;;5065605;27;93898;-60
2023/01/13 01:48:10;;;;;;;5.63;3.13;;;22.10;45.40;;;;;;5071424;27;92081;-60
2023/01/13 01:50:38;;;;;;;5.07;2.93;;;22.00;45.40;;;;;;5073269;27;91548;-60
2023/01/13 01:53:09;;;;;;;5.53;2.80;;;22.00;45.40;;;;;;5077853;27;93310;-60
2023/01/13 01:55:37;;;;;;;6.37;2.93;;;22.00;45.50;;;;;;5079986;27;93810;-60
2023/01/13 01:58:07;;;;;;;4.10;3.07;;;22.00;45.50;;;;;;5072104;27;93101;-60
2023/01/13 02:00:35;;;;;;;5.53;3.03;;;21.90;45.40;;;;;;5062157;27;92020;-60
2023/01/13 02:03:04;;;;;;;5.50;3.20;;;22.00;45.50;;;;;;5062373;27;94159;-60
2023/01/13 02:05:34;;;;;;;4.33;2.53;;;21.90;45.40;;;;;;5062090;27;93976;-60
2023/01/13 02:08:02;;;;;;;6.90;3.13;;;21.90;46.00;;;;;;5074536;27;92177;-60
2023/01/13 02:10:31;;;;;;;5.10;2.63;;;21.90;45.40;;;;;;5081828;27;93938;-61
2023/01/13 02:12:59;;;;;;;7.30;3.47;;;21.90;45.40;;;;;;5079315;27;94325;-60
2023/01/13 02:15:29;;;;;;;3.27;2.47;;;21.90;45.40;;;;;;5063486;27;91534;-61
2023/01/13 02:18:14;;;;;;;4.57;2.90;;;21.80;45.30;;;;;;5072443;27;92096;-60
2023/01/13 02:21:01;;;;;;;3.23;2.27;;;21.80;45.30;;;;;;5070548;27;92128;-60
2023/01/13 02:27:25;;;;;;;2.80;2.50;;;21.80;45.40;;;;;;5062150;27;94786;-60
2023/01/13 02:33:08;;;;;;;3.13;2.10;;;21.70;45.40;;;;;;5066100;27;92115;-60
2023/01/13 02:35:39;;;;;;;3.53;2.83;;;21.70;45.40;;;;;;5075005;27;92111;-60
2023/01/13 02:38:07;;;;;;;5.50;2.60;;;21.70;45.40;;;;;;5074331;27;93942;-60
2023/01/13 02:40:38;;;;;;;3.30;1.77;;;21.70;45.40;;;;;;5081711;27;92185;-60
2023/01/13 02:45:57;;;;;;;2.23;1.90;;;21.70;45.40;;;;;;5066793;27;94286;-60
2023/01/13 02:48:25;;;;;;;2.83;2.40;;;21.70;45.40;;;;;;5077764;27;94015;-60
2023/01/13 02:50:55;;;;;;;2.07;1.87;;;21.60;45.30;;;;;;5080787;27;93025;-60
2023/01/13 02:53:26;;;;;;;4.60;2.13;;;21.70;45.40;;;;;;5063310;27;92079;-60
2023/01/13 02:55:54;;;;;;;3.73;2.50;;;21.60;45.30;;;;;;5060476;27;94328;-60
2023/01/13 02:58:24;;;;;;;2.67;2.17;;;21.70;45.40;;;;;;5068985;27;93706;-60
2023/01/13 03:00:52;;;;;;;4.17;1.90;;;21.60;45.30;;;;;;5081255;27;92018;-60
2023/01/13 03:03:21;;;;;;;7.07;2.20;;;21.60;45.30;;;;;;5081235;27;92564;-60
2023/01/13 03:05:51;;;;;;;3.80;1.80;;;21.60;45.30;;;;;;5076063;27;94216;-60
2023/01/13 03:08:26;;;;;;;4.73;2.00;;;21.60;45.30;;;;;;5061355;27;92936;-60
2023/01/13 03:11:00;;;;;;;2.77;1.53;;;21.60;45.30;;;;;;5061158;27;92115;-60
2023/01/13 03:13:54;;;;;;;1.83;1.50;;;21.60;45.30;;;;;;5061694;27;92155;-60
2023/01/13 03:16:28;;;;;;;8.27;2.07;;;21.60;45.40;;;;;;5058095;27;95027;-60
2023/01/13 03:19:06;;;;;;;3.57;1.63;;;21.50;45.30;;;;;;5061112;27;94911;-60
2023/01/13 03:21:38;;;;;;;2.77;1.70;;;21.50;45.40;;;;;;5062134;27;92192;-60
2023/01/13 03:24:07;;;;;;;2.90;1.83;;;21.50;45.30;;;;;;5078618;27;92168;-60
2023/01/13 03:26:38;;;;;;;1.93;1.07;;;21.50;45.40;;;;;;5074568;27;94194;-60
2023/01/13 03:29:09;;;;;;;2.70;1.47;;;21.50;45.30;;;;;;5068692;27;92881;-60
2023/01/13 03:31:40;;;;;;;2.63;1.80;;;21.50;45.30;;;;;;5080702;27;91938;-60
2023/01/13 03:34:11;;;;;;;4.57;2.30;;;21.40;45.20;;;;;;5063481;27;91470;-60
2023/01/13 03:36:39;;;;;;;2.23;1.63;;;21.40;45.20;;;;;;5070373;27;94381;-60
2023/01/13 03:39:09;;;;;;;3.53;1.57;;;21.40;45.20;;;;;;5060715;27;93839;-60
2023/01/13 03:41:38;;;;;;;3.23;1.07;;;21.40;45.30;;;;;;5069148;27;92971;-60
2023/01/13 03:44:23;;;;;;;4.07;1.97;;;21.40;45.30;;;;;;5067646;27;92103;-60
2023/01/13 03:46:58;;;;;;;3.17;0.80;;;21.40;45.30;;;;;;5074233;27;93316;-60
2023/01/13 03:49:29;;;;;;;3.63;1.70;;;21.40;45.30;;;;;;5062364;27;93852;-60
2023/01/13 03:51:58;;;;;;;4.03;1.30;;;21.40;45.30;;;;;;5046167;27;92078;-60
2023/01/13 03:54:27;;;;;;;2.77;1.20;;;21.40;45.30;;;;;;5061138;27;93649;-60
2023/01/13 03:56:57;;;;;;;4.67;1.60;;;21.40;45.30;;;;;;5059925;27;94207;-60
2023/01/13 03:59:27;;;;;;;2.47;1.30;;;21.30;45.30;;;;;;5060365;27;93908;-60
2023/01/13 04:01:59;;;;;;;1.77;1.17;;;21.30;45.30;;;;;;5078338;27;92084;-60
2023/01/13 04:04:30;;;;;;;2.77;1.20;;;21.30;45.30;;;;;;5080196;27;92149;-60
2023/01/13 04:07:02;;;;;;;4.27;1.73;;;21.30;45.30;;;;;;5066355;27;94908;-60
2023/01/13 04:09:31;;;;;;;2.27;1.13;;;21.30;45.30;;;;;;5064838;27;93452;-60
2023/01/13 04:12:01;;;;;;;5.67;2.30;;;21.30;45.20;;;;;;5059636;27;92077;-60
2023/01/13 04:14:29;;;;;;;2.13;1.37;;;21.30;45.30;;;;;;5025159;28;92164;-60
2023/01/13 04:16:57;;;;;;;2.93;1.23;;;21.20;45.20;;;;;;5038817;28;94108;-60
2023/01/13 04:19:25;;;;;;;4.47;1.20;;;21.20;45.20;;;;;;5024596;28;93987;-60
2023/01/13 04:21:55;;;;;;;5.53;1.53;;;21.30;45.30;;;;;;5024649;28;92139;-60
2023/01/13 04:24:23;;;;;;;4.57;1.87;;;21.30;45.30;;;;;;5029649;27;91269;-61
2023/01/13 04:26:51;;;;;;;2.97;1.17;;;21.30;45.30;;;;;;5022445;28;94238;-60
2023/01/13 04:29:19;;;;;;;3.23;1.70;;;21.20;45.80;;;;;;5009441;28;93886;-60
2023/01/13 04:31:46;;;;;;;1.80;1.20;;;21.20;45.20;;;;;;5019685;28;93115;-60
2023/01/13 04:34:14;;;;;;;1.67;1.00;;;21.20;45.20;;;;;;5025787;28;92453;-60
2023/01/13 04:36:43;;;;;;;3.57;1.10;;;21.20;45.20;;;;;;5029406;28;94596;-60
2023/01/13 04:39:13;;;;;;;1.73;1.10;;;21.10;45.20;;;;;;5017837;28;94018;-59
2023/01/13 04:42:00;;;;;;;6.57;1.30;;;21.10;45.20;;;;;;5019832;28;92119;-60
2023/01/13 04:44:29;;;;;;;2.00;1.13;;;21.10;45.20;;;;;;5018831;28;94171;-60
2023/01/13 04:46:58;;;;;;;3.07;1.00;;;21.10;45.20;;;;;;5018421;28;94079;-60
2023/01/13 04:49:26;;;;;;;3.50;0.90;;;21.10;45.20;;;;;;5032798;28;93922;-60
2023/01/13 04:51:54;;;;;;;1.00;0.80;;;21.10;45.20;;;;;;5031008;27;92152;-59
2023/01/13 04:54:23;;;;;;;0.67;0.60;;;21.10;45.30;;;;;;5029730;28;92092;-60
2023/01/13 04:56:51;;;;;;;1.73;0.90;;;21.10;45.30;;;;;;5038074;27;94834;-60
2023/01/13 04:59:19;;;;;;;0.67;0.60;;;21.50;45.60;;;;;;5037474;28;94830;-60
2023/01/13 05:01:47;;;;;;;0.97;0.83;;;21.00;45.20;;;;;;5038520;27;92000;-60
2023/01/13 05:04:15;;;;;;;3.33;1.10;;;21.00;45.20;;;;;;5037728;27;92056;-60
2023/01/13 05:06:44;;;;;;;2.53;0.80;;;21.00;45.20;;;;;;5030046;27;93156;-60
2023/01/13 05:09:14;;;;;;;2.20;0.90;;;21.00;45.20;;;;;;5032188;28;92716;-60
2023/01/13 05:17:17;;;;;;;3.07;1.00;;;21.00;45.20;;;;;;5017713;28;93228;-59
2023/01/13 05:19:45;;;;;;;4.53;0.83;;;21.00;45.20;;;;;;5017573;28;93848;-60
2023/01/13 05:25:23;;;;;;;1.60;0.60;;;21.00;45.30;;;;;;4972720;28;92484;-60
2023/01/13 05:27:54;;;;;;;2.73;0.70;;;21.00;45.90;;;;;;4955836;28;94507;-60
2023/01/13 05:30:22;;;;;;;2.07;0.97;;;20.90;45.80;;;;;;4997504;28;93869;-60
2023/01/13 05:32:50;;;;;;;1.13;0.90;;;21.00;45.90;;;;;;5037854;27;92401;-60
2023/01/13 05:35:18;;;;;;;1.67;0.37;;;20.90;45.20;;;;;;5036093;28;92251;-60
2023/01/13 05:37:46;;;;;;;0.97;0.80;;;20.90;45.20;;;;;;5034476;27;92642;-60
2023/01/13 05:43:21;;;;;;;1.57;0.90;;;20.90;45.20;;;;;;5006914;28;92110;-60
2023/01/13 05:45:50;;;;;;;2.37;0.70;;;20.90;45.30;;;;;;5037319;27;92965;-60
2023/01/13 05:48:18;;;;;;;0.80;0.80;;;20.90;45.30;;;;;;5026250;28;95197;-60
2023/01/13 05:50:48;;;;;;;1.20;0.57;;;20.90;45.30;;;;;;5031147;28;93659;-58
2023/01/13 05:53:16;;;;;;;2.10;0.83;;;20.90;45.30;;;;;;5026137;28;92077;-60
2023/01/13 05:55:44;;;;;;;2.63;0.40;;;20.90;45.30;;;;;;5017730;28;92055;-60
2023/01/13 05:58:14;;;;;;;2.97;0.60;;;20.90;45.30;;;;;;5031528;28;93332;-60
2023/01/13 06:00:42;;;;;;;2.77;0.80;;;20.90;45.30;;;;;;5019204;28;93920;-60
2023/01/13 06:03:10;;;;;;;1.47;0.93;;;20.80;45.20;;;;;;5017967;28;92095;-60
2023/01/13 06:05:38;;;;;;;0.47;0.47;;;20.80;45.20;;;;;;5018239;28;91325;-60
2023/01/13 06:08:07;;;;;;;1.27;0.60;;;20.80;45.20;;;;;;5018734;28;92320;-60
2023/01/13 06:10:35;;;;;;;1.47;0.73;;;20.80;45.20;;;;;;5030860;28;93828;-60
2023/01/13 06:13:03;;;;;;;4.80;0.87;;;20.80;45.20;;;;;;5044641;27;93079;-60
2023/01/13 06:15:33;;;;;;;1.07;0.60;;;20.80;45.90;;;;;;5069719;27;92157;-60
2023/01/13 06:18:02;;;;;;;3.93;1.00;;;20.80;45.20;;;;;;5057906;27;92901;-60
2023/01/13 06:20:30;;;;;;;1.10;0.83;;;20.80;45.20;;;;;;5058938;27;94097;-60
2023/01/13 06:22:58;;;;;;;2.33;0.60;;;20.80;45.20;;;;;;5068697;27;92179;-60
2023/01/13 06:25:32;;;;;;;1.57;0.80;;;20.80;45.30;;;;;;5078045;27;92011;-60
2023/01/13 06:28:00;;;;;;;0.80;0.50;;;20.70;45.20;;;;;;5075903;27;93302;-60
2023/01/13 06:30:29;;;;;;;0.77;0.60;;;20.70;45.20;;;;;;5057253;27;93962;-60
2023/01/13 06:32:59;;;;;;;2.13;0.90;;;20.70;45.20;;;;;;5058841;27;92092;-60
2023/01/13 06:35:28;;;;;;;1.60;0.77;;;20.70;45.20;;;;;;5059066;27;91994;-59
2023/01/13 06:37:56;;;;;;;0.67;0.67;;;20.70;45.30;;;;;;5074917;27;95425;-60
2023/01/13 06:40:24;;;;;;;2.40;1.00;;;20.70;45.30;;;;;;5058257;27;94907;-60
2023/01/13 06:45:43;;;;;;;0.80;0.70;;;20.70;45.30;;;;;;5073897;27;92087;-60
2023/01/13 06:48:12;;;;;;;2.67;0.60;;;20.70;45.30;;;;;;5066034;27;94374;-60
2023/01/13 06:50:41;;;;;;;4.63;1.03;;;20.70;46.00;;;;;;5080936;27;93853;-60
2023/01/13 06:53:09;;;;;;;0.87;0.60;;;20.70;45.30;;;;;;5079691;27;92057;-60
2023/01/13 06:55:37;;;;;;;4.23;1.20;;;20.70;45.30;;;;;;5081088;27;91601;-60
2023/01/13 06:58:05;;;;;;;2.97;0.47;;;20.70;45.30;;;;;;5080411;27;93052;-60
2023/01/13 07:00:35;;;;;;;0.90;0.90;;;20.70;45.30;;;;;;5080730;27;92778;-60
2023/01/13 07:03:10;;;;;;;1.80;0.53;;;20.70;45.30;;;;;;5080886;27;92978;-60
2023/01/13 07:05:40;;;;;;;0.60;0.60;;;20.70;45.30;;;;;;5066811;27;92061;-60
2023/01/13 07:08:08;;;;;;;1.37;0.40;;;20.60;45.20;;;;;;5066539;27;94195;-60
2023/01/13 07:10:36;;;;;;;1.20;1.00;;;20.60;45.20;;;;;;5080426;27;93826;-60
2023/01/13 07:15:54;;;;;;;1.60;0.97;;;20.60;45.20;;;;;;5078056;27;92077;-60
2023/01/13 07:18:23;;;;;;;1.90;0.90;;;20.60;45.20;;;;;;5079114;27;94197;-60
2023/01/13 07:20:56;;;;;;;1.23;0.50;;;20.60;45.20;;;;;;5077578;27;93990;-60
2023/01/13 07:23:24;;;;;;;5.33;0.60;;;20.60;45.20;;;;;;5080250;27;92650;-60
2023/01/13 07:25:54;;;;;;;1.70;0.60;;;20.60;45.20;;;;;;5077300;27;92072;-60
2023/01/13 07:28:22;;;;;;;1.00;0.50;;;20.60;45.20;;;;;;5080023;27;94958;-60
2023/01/13 07:30:50;;;;;;;3.70;0.50;;;20.60;45.20;;;;;;5079551;27;94794;-60
2023/01/13 07:33:18;;;;;;;0.50;0.50;;;20.60;45.30;;;;;;5061666;27;93909;-61
2023/01/13 07:35:46;;;;;;;1.27;0.97;;;20.60;45.20;;;;;;5065067;27;92191;-60
2023/01/13 07:38:16;;;;;;;1.77;0.50;;;20.60;45.20;;;;;;5075586;27;94276;-60
2023/01/13 07:40:44;;;;;;;0.73;0.50;;;20.60;45.30;;;;;;5059878;27;92624;-60
2023/01/13 07:45:58;;;;;;;0.77;0.37;;;20.50;45.20;;;;;;5080262;27;91729;-60
2023/01/13 07:48:26;;;;;;;0.37;0.37;;;20.50;45.20;;;;;;5074313;27;94137;-59
2023/01/13 07:50:54;;;;;;;0.50;0.50;;;20.50;45.20;;;;;;5057082;27;93917;-60
2023/01/13 07:53:24;;;;;;;0.83;0.60;;;20.50;45.20;;;;;;5039742;27;93113;-59
2023/01/13 07:55:55;;;;;;;0.60;0.60;;;20.50;45.30;;;;;;5043152;27;92795;-60
2023/01/13 07:58:23;;;;;;;1.73;0.70;;;20.50;45.80;;;;;;5050840;27;94186;-60
2023/01/13 08:00:51;;;;;;;0.40;0.37;;;20.50;45.20;;;;;;5039485;27;93876;-60
2023/01/13 08:03:20;;;;;;;1.27;0.70;;;20.50;45.20;;;;;;5039692;27;91963;-60
2023/01/13 08:05:48;;;;;;;1.20;0.93;;;20.50;45.20;;;;;;5048592;27;92710;-60
2023/01/13 08:08:16;;;;;;;0.60;0.40;;;20.50;45.20;;;;;;5057550;27;93172;-59
2023/01/13 08:10:45;;;;;;;2.97;0.90;;;20.50;45.20;;;;;;5052151;27;92899;-60
2023/01/13 08:13:18;;;;;;;1.63;0.60;;;20.50;45.20;;;;;;5049513;27;94244;-60
2023/01/13 08:15:47;;;;;;;2.43;0.83;;;20.50;45.20;;;;;;5058071;27;92138;-60
2023/01/13 08:18:16;;;;;;;0.60;0.60;;;20.50;45.20;;;;;;5061879;27;95078;-60
2023/01/13 08:20:44;;;;;;;2.07;0.90;;;20.50;45.20;;;;;;5045450;27;94861;-60
2023/01/13 08:23:12;;;;;;;4.53;1.23;;;20.50;45.20;;;;;;5038777;28;92063;-60
2023/01/13 08:25:40;;;;;;;1.87;0.97;;;20.50;45.20;;;;;;5038225;28;92089;-60
2023/01/13 08:28:09;;;;;;;0.83;0.50;;;20.50;45.20;;;;;;5039296;28;92919;-60
2023/01/13 08:30:37;;;;;;;1.03;0.57;;;20.50;45.20;;;;;;5038936;28;94146;-60
2023/01/13 08:33:06;;;;;;;1.73;0.80;;;20.60;45.20;;;;;;5039382;28;92087;-60
2023/01/13 08:35:35;;;;;;;2.50;0.70;;;20.70;45.20;;;;;;5039520;27;91373;-60
2023/01/13 08:38:03;;;;;;;1.93;0.30;;;20.80;45.10;;;;;;5038958;28;94299;-60
2023/01/13 08:40:32;;;;;;;0.70;0.70;;;21.00;45.00;;;;;;5038536;27;92765;-60
2023/01/13 08:43:00;;;;;;;0.30;0.30;;;21.20;45.00;;;;;;5038416;28;92943;-61
2023/01/13 08:45:29;;;;;;;0.50;0.50;;;21.40;44.90;;;;;;5038651;27;92308;-61
2023/01/13 08:47:58;;;;;;;0.50;0.40;;;21.60;44.80;;;;;;5038642;27;94470;-60
2023/01/13 08:50:26;;;;;;;1.70;0.50;;;21.80;44.80;;;;;;5038270;27;94011;-60
2023/01/13 08:52:54;;;;;;;0.60;0.60;;;21.90;44.60;;;;;;5038538;28;92723;-60
2023/01/13 08:55:22;;;;;;;0.67;0.50;;;22.20;44.60;;;;;;5038554;28;92125;-60
2023/01/13 08:57:50;;;;;;;0.43;0.43;;;22.40;45.10;;;;;;5037911;28;94266;-61
2023/01/13 09:00:21;;;;;;;1.70;0.60;;;22.50;44.30;;;;;;5038649;27;93955;-61
2023/01/13 09:02:51;;;;;;;2.27;0.40;;;22.70;44.30;;;;;;5038947;28;92093;-61
2023/01/13 09:05:19;;;;;;;2.90;0.80;;;22.90;44.30;;;;;;5037072;27;92065;-61
2023/01/13 09:07:47;;;;;;;0.57;0.40;;;23.00;44.10;;;;;;5036971;28;95763;-61
2023/01/13 09:10:15;;;;;;;0.43;0.43;;;23.10;44.00;;;;;;5037795;27;93924;-61
2023/01/13 09:15:29;;;;;;;3.13;0.63;;;23.40;43.90;;;;;;5038324;28;92185;-61
2023/01/13 09:17:59;;;;;;;0.40;0.40;;;23.50;43.80;;;;;;5038090;28;94019;-61
2023/01/13 09:20:27;;;;;;;0.80;0.47;;;23.60;43.80;;;;;;5037561;27;92959;-61
2023/01/13 09:22:55;;;;;;;0.37;0.30;;;23.80;43.80;;;;;;5038009;28;92104;-61
2023/01/13 09:25:23;;;;;;;0.33;0.33;;;23.80;43.60;;;;;;5037912;28;91293;-60
2023/01/13 09:27:51;;;;;;;2.07;0.50;;;24.00;43.70;;;;;;5037600;28;94271;-61
2023/01/13 09:30:19;;;;;;;2.63;0.77;;;24.10;43.50;;;;;;5037531;28;93957;-61
2023/01/13 09:32:47;;;;;;;1.30;0.37;;;24.10;43.40;;;;;;5037731;28;93055;-60
2023/01/13 09:35:16;;;;;;;0.93;0.30;;;24.20;43.40;;;;;;5038570;27;92147;-60
2023/01/13 09:37:44;;;;;;;2.57;0.53;;;24.30;43.30;;;;;;5037669;28;93219;-59
2023/01/13 09:40:15;;;;;;;1.37;0.60;;;24.30;43.30;;;;;;5038112;27;93271;-60
2023/01/13 09:45:33;;;;;;;1.33;0.30;;;24.30;43.20;;;;;;5038553;28;92093;-60
2023/01/13 09:48:04;;;;;;;4.80;1.07;;;24.30;43.30;;;;;;5037675;28;93073;-61
2023/01/13 09:50:41;;;;;;;1.30;0.73;;;24.20;43.20;;;;;;5038243;27;93826;-60
2023/01/13 09:53:12;;;;;;;2.03;0.60;;;24.20;43.20;;;;;;5037954;28;92082;-60
2023/01/13 09:55:40;;;;;;;0.60;0.60;;;24.30;43.20;;;;;;5038369;28;92172;-62
2023/01/13 09:58:12;;;;;;;0.53;0.30;;;24.40;43.20;;;;;;5037060;28;93075;-60
2023/01/13 10:00:45;;;;;;;2.47;0.57;;;24.50;43.20;;;;;;5037398;28;94898;-61
2023/01/13 10:03:24;;;;;;;3.13;0.63;;;24.60;43.00;;;;;;5037988;28;92111;-61
2023/01/13 10:05:57;;;;;;;0.40;0.37;;;24.70;42.90;;;;;;5037369;28;92090;-60
2023/01/13 10:08:27;;;;;;;0.70;0.50;;;24.90;42.90;;;;;;5037129;28;93207;-60
2023/01/13 10:10:57;;;;;;;2.00;0.70;;;25.00;42.80;;;;;;5037295;27;93829;-60
2023/01/13 10:13:25;;;;;;;2.43;0.70;;;25.10;42.70;;;;;;5037599;27;92235;-60
2023/01/13 10:16:07;;;;;;;4.33;0.63;;;25.20;42.50;;;;;;5039055;28;91425;-61
2023/01/13 10:18:42;;;;;;;3.57;0.60;;;25.30;42.50;;;;;;5040558;28;93208;-61
2023/01/13 10:21:19;;;;;;;1.60;0.80;;;25.30;42.40;;;;;;5040522;27;92782;-60
2023/01/13 10:23:57;;;;;;;1.13;0.60;;;25.40;42.40;;;;;;5040236;27;93077;-61
2023/01/13 10:26:37;;;;;;;1.43;0.70;;;25.40;42.30;;;;;;5041273;27;92179;-60
2023/01/13 10:29:18;;;;;;;3.60;0.60;;;25.50;42.30;;;;;;5041033;28;94257;-60
2023/01/13 10:31:46;;;;;;;1.80;0.50;;;25.40;42.40;;;;;;5040462;28;93929;-60
2023/01/13 10:34:15;;;;;;;0.30;0.30;;;25.40;42.30;;;;;;5040717;27;91961;-60
2023/01/13 10:36:56;;;;;;;2.73;0.80;;;25.30;42.20;;;;;;5041144;28;92332;-61
2023/01/13 10:39:24;;;;;;;1.27;0.73;;;25.30;42.30;;;;;;5040764;28;93118;-58
2023/01/13 10:42:02;;;;;;;0.47;0.47;;;25.20;42.30;;;;;;5040666;28;93923;-59
2023/01/13 10:44:30;;;;;;;1.40;0.30;;;25.10;42.40;;;;;;5041048;27;92160;-60
2023/01/13 10:46:58;;;;;;;0.47;0.47;;;25.00;42.40;;;;;;5040468;28;91920;-60
2023/01/13 10:49:29;;;;;;;1.20;0.40;;;24.90;42.40;;;;;;5039603;28;95194;-60
2023/01/13 10:51:59;;;;;;;1.17;0.70;;;24.90;43.10;;;;;;5040322;27;93909;-60
2023/01/13 10:54:27;;;;;;;0.83;0.50;;;24.80;42.50;;;;;;5040355;28;92153;-60
2023/01/13 10:57:13;;;;;;;0.80;0.53;;;24.70;42.50;;;;;;5040436;28;92112;-60
2023/01/13 10:59:41;;;;;;;1.10;0.40;;;24.60;42.50;;;;;;5040222;28;94181;-59
2023/01/13 11:02:22;;;;;;;0.97;0.70;;;24.60;43.20;;;;;;5040044;27;93977;-59
2023/01/13 11:05:09;;;;;;;0.87;0.60;;;24.50;42.60;;;;;;5040437;28;91949;-59
2023/01/13 11:07:40;;;;;;;1.70;0.60;;;24.40;42.60;;;;;;5040092;28;91972;-59
2023/01/13 11:10:18;;;;;;;0.87;0.40;;;24.30;42.60;;;;;;5039758;28;92159;-59
2023/01/13 11:12:51;;;;;;;2.90;0.70;;;24.20;42.60;;;;;;5039200;28;94108;-58
2023/01/13 11:15:20;;;;;;;4.33;0.60;;;24.20;42.70;;;;;;5039525;27;93014;-59
2023/01/13 11:17:50;;;;;;;2.37;0.57;;;24.10;42.60;;;;;;5039429;27;92071;-59
2023/01/13 11:20:20;;;;;;;2.03;0.53;;;24.10;42.70;;;;;;5039449;27;94142;-59
2023/01/13 11:22:51;;;;;;;2.07;0.30;;;24.00;42.70;;;;;;5039460;28;93910;-59
2023/01/13 11:25:21;;;;;;;0.63;0.63;;;24.00;42.80;;;;;;5039471;28;92225;-60
2023/01/13 11:27:54;;;;;;;1.83;0.70;;;23.90;42.70;;;;;;5038761;27;92031;-60
2023/01/13 11:30:26;;;;;;;2.93;0.70;;;23.90;42.80;;;;;;5039791;28;93331;-59
2023/01/13 11:33:02;;;;;;;0.40;0.40;;;23.90;42.80;;;;;;5040001;28;93846;-59
2023/01/13 11:35:30;;;;;;;1.70;0.67;;;23.80;42.80;;;;;;5039712;28;92036;-59
2023/01/13 11:38:01;;;;;;;2.07;0.57;;;23.70;42.70;;;;;;5039703;28;92007;-59
2023/01/13 11:40:33;;;;;;;2.67;1.00;;;23.70;42.80;;;;;;5038519;28;95297;-59
2023/01/13 11:43:03;;;;;;;1.60;0.67;;;23.70;42.80;;;;;;5039292;27;94862;-60
2023/01/13 11:45:41;;;;;;;4.77;1.07;;;23.60;42.80;;;;;;5040104;27;92059;-59
2023/01/13 11:48:12;;;;;;;2.00;0.70;;;23.60;42.80;;;;;;5039879;28;92019;-59
2023/01/13 11:50:41;;;;;;;0.77;0.70;;;23.50;42.70;;;;;;5039568;28;93300;-60
2023/01/13 11:53:23;;;;;;;2.23;0.60;;;23.50;42.80;;;;;;5039282;27;93767;-59
2023/01/13 11:55:55;;;;;;;1.73;0.37;;;23.50;42.80;;;;;;5039695;27;92107;-59
2023/01/13 11:58:34;;;;;;;1.53;0.80;;;23.40;42.80;;;;;;5040112;27;91375;-60
2023/01/13 12:01:33;;;;;;;0.70;0.40;;;23.40;42.90;;;;;;5039116;27;94125;-60
2023/01/13 12:04:09;;;;;;;3.93;1.43;;;23.40;42.90;;;;;;5038870;27;94077;-60
2023/01/13 12:06:38;;;;;;;5.80;0.60;;;23.30;42.80;;;;;;5038457;28;93056;-59
2023/01/13 12:09:22;;;;;;;4.50;0.90;;;23.30;42.90;;;;;;5039019;28;92118;-60
2023/01/13 12:14:50;;;;;;;1.93;0.93;;;23.20;42.90;;;;;;5039124;28;93862;-60
2023/01/13 12:17:23;;;;;;;1.77;0.53;;;23.20;42.90;;;;;;5039113;28;92173;-60
2023/01/13 12:19:52;;;;;;;1.03;0.50;;;23.10;42.90;;;;;;5038860;28;92949;-60
2023/01/13 12:22:21;;;;;;;4.50;0.60;;;23.10;42.90;;;;;;5039119;27;94242;-60
2023/01/13 12:24:52;;;;;;;0.67;0.40;;;23.10;42.90;;;;;;5039106;27;93627;-60
2023/01/13 12:27:24;;;;;;;0.90;0.73;;;23.10;43.00;;;;;;5039338;27;92121;-60
2023/01/13 12:29:54;;;;;;;4.07;0.90;;;23.10;43.00;;;;;;5039518;28;92059;-60
2023/01/13 12:32:31;;;;;;;2.83;0.60;;;23.00;43.00;;;;;;5038371;28;95357;-60
2023/01/13 12:35:06;;;;;;;1.23;0.50;;;23.00;43.00;;;;;;5038565;28;94803;-59
2023/01/13 12:37:37;;;;;;;0.93;0.63;;;23.00;43.00;;;;;;5039059;28;92095;-60
2023/01/13 12:40:18;;;;;;;2.73;0.40;;;22.90;42.90;;;;;;5038751;27;92709;-60
2023/01/13 12:45:30;;;;;;;0.50;0.30;;;22.90;43.00;;;;;;5003633;27;92602;-60
2023/01/13 12:47:59;;;;;;;0.70;0.70;;;22.90;43.00;;;;;;5038718;27;92135;-60
2023/01/13 12:50:40;;;;;;;1.37;0.90;;;22.90;43.00;;;;;;5039280;27;91405;-60
2023/01/13 12:53:37;;;;;;;0.93;0.60;;;22.90;43.10;;;;;;5038725;28;94207;-60
2023/01/13 12:56:38;;;;;;;0.40;0.40;;;22.90;43.10;;;;;;5038470;27;92703;-61
2023/01/13 12:59:49;;;;;;;1.37;0.57;;;22.80;43.10;;;;;;5038021;28;93134;-60
2023/01/13 13:02:35;;;;;;;1.40;0.87;;;22.80;43.10;;;;;;5038510;28;92055;-60
2023/01/13 13:05:22;;;;;;;1.07;0.60;;;;;;;;;;5038198;28;94127;-60
2023/01/13 13:07:51;;;;;;;4.50;0.97;;;;;;;;;;5037870;27;92951;-60
2023/01/13 13:10:24;;;;;;;0.63;0.60;;;;;;;;;;5038424;28;92039;-60
2023/01/13 13:13:17;;;;;;;0.97;0.57;;;;;;;;;;5037581;28;92140;-60
2023/01/13 13:15:46;;;;;;;0.97;0.40;;;;;;;;;;5034429;27;93427;-59
2023/01/13 13:18:24;;;;;;;0.83;0.40;;;;;;;;;;5037723;27;93881;-60
2023/01/13 13:20:59;;;;;;;0.53;0.40;;;;;;;;;;5038031;28;92099;-60
2023/01/13 13:23:47;;;;;;;1.63;0.90;;;;;;;;;;5037628;28;92111;-58
2023/01/13 13:26:18;;;;;;;0.40;0.40;;;;;;;;;;5021965;28;95084;-60
2023/01/13 13:28:49;;;;;;;0.37;0.37;;;;;;;;;;5037819;28;94851;-60
2023/01/13 13:31:30;;;;;;;0.73;0.67;;;;;;;;;;5038280;28;92109;-60
2023/01/13 13:34:20;;;;;;;0.50;0.50;;;;;;;;;;5038402;28;92087;-60
2023/01/13 13:36:54;;;;;;;0.93;0.63;;;;;;;;;;5031668;28;94320;-60
2023/01/13 13:47:46;;;;;;;1.27;0.80;;;;;;;;;;5037523;28;94251;-59
2023/01/13 13:50:18;;;;;;;1.97;0.80;;;;;;;;;;5036843;28;93831;-59
2023/01/13 13:52:52;;;;;;;0.43;0.43;;;;;;;;;;5037306;28;93528;-60
2023/01/13 13:55:22;;;;;;;2.77;0.93;;;22.60;42.20;;;;;;5037559;27;92070;-60
2023/01/13 13:57:51;;;;;;;4.13;0.60;;;22.50;42.90;;;;;;5037272;28;92080;-60
2023/01/13 14:00:23;;;;;;;0.57;0.57;;;22.50;43.10;;;;;;5037125;27;93086;-59
2023/01/13 14:02:53;;;;;;;0.50;0.50;;;22.40;43.10;;;;;;5037989;28;92068;-60
2023/01/13 14:05:22;;;;;;;1.07;0.53;;;22.40;43.10;;;;;;5037560;28;92102;-60